sensor_id;sensor_type;location;lat;lon;timestamp;P1;durP1;ratioP1;P2;durP2;ratioP2
61385;SDS011;47256;18.904;-99.054;2023-04-25T00:02:24;17.35;;;8.35;;
61385;SDS011;47256;18.904;-99.054;2023-04-25T00:04:51;21.67;;;8.60;;
61385;SDS011;47256;18.904;-99.054;2023-04-25T00:07:20;13.43;;;7.78;;
61385;SDS011;47256;18.904;-99.054;2023-04-25T00:09:47;15.27;;;7.90;;
61385;SDS011;47256;18.904;-99.054;2023-04-25T00:12:14;12.18;;;7.10;;
61385;SDS011;47256;18.904;-99.054;2023-04-25T00:14:41;13.90;;;7.40;;
61385;SDS011;47256;18.904;-99.054;2023-04-25T00:17:09;13.90;;;7.22;;
61385;SDS011;47256;18.904;-99.054;2023-04-25T00:19:37;21.20;;;6.88;;
61385;SDS011;47256;18.904;-99.054;2023-04-25T00:22:10;35.20;;;8.38;;
61385;SDS011;47256;18.904;-99.054;2023-04-25T00:24:39;28.42;;;8.00;;
61385;SDS011;47256;18.904;-99.054;2023-04-25T00:27:08;19.27;;;7.38;;
61385;SDS011;47256;18.904;-99.054;2023-04-25T00:29:36;37.97;;;8.98;;
61385;SDS011;47256;18.904;-99.054;2023-04-25T00:32:03;74.75;;;11.43;;
61385;SDS011;47256;18.904;-99.054;2023-04-25T00:34:30;69.45;;;12.77;;
61385;SDS011;47256;18.904;-99.054;2023-04-25T00:36:58;25.23;;;8.27;;
61385;SDS011;47256;18.904;-99.054;2023-04-25T00:39:27;37.88;;;8.15;;
61385;SDS011;47256;18.904;-99.054;2023-04-25T00:41:55;16.40;;;7.13;;
61385;SDS011;47256;18.904;-99.054;2023-04-25T00:44:23;27.98;;;7.75;;
61385;SDS011;47256;18.904;-99.054;2023-04-25T00:46:53;9.95;;;6.95;;
61385;SDS011;47256;18.904;-99.054;2023-04-25T00:49:20;10.18;;;6.68;;
61385;SDS011;47256;18.904;-99.054;2023-04-25T00:51:48;20.40;;;6.88;;
61385;SDS011;47256;18.904;-99.054;2023-04-25T00:54:16;10.15;;;6.78;;
61385;SDS011;47256;18.904;-99.054;2023-04-25T00:56:44;21.35;;;7.15;;
61385;SDS011;47256;18.904;-99.054;2023-04-25T00:59:11;11.48;;;6.65;;
61385;SDS011;47256;18.904;-99.054;2023-04-25T01:01:39;14.18;;;7.75;;
61385;SDS011;47256;18.904;-99.054;2023-04-25T01:04:08;12.65;;;6.97;;
61385;SDS011;47256;18.904;-99.054;2023-04-25T01:06:36;11.73;;;7.50;;
61385;SDS011;47256;18.904;-99.054;2023-04-25T01:09:03;12.82;;;7.75;;
61385;SDS011;47256;18.904;-99.054;2023-04-25T01:11:31;18.88;;;8.88;;
61385;SDS011;47256;18.904;-99.054;2023-04-25T01:13:58;15.85;;;7.85;;
61385;SDS011;47256;18.904;-99.054;2023-04-25T01:16:27;19.20;;;7.60;;
61385;SDS011;47256;18.904;-99.054;2023-04-25T01:18:56;12.93;;;7.10;;
61385;SDS011;47256;18.904;-99.054;2023-04-25T01:21:24;16.02;;;6.95;;
61385;SDS011;47256;18.904;-99.054;2023-04-25T01:23:54;15.25;;;7.55;;
61385;SDS011;47256;18.904;-99.054;2023-04-25T01:26:21;10.82;;;7.30;;
61385;SDS011;47256;18.904;-99.054;2023-04-25T01:28:50;13.55;;;7.55;;
61385;SDS011;47256;18.904;-99.054;2023-04-25T01:31:18;11.43;;;6.93;;
61385;SDS011;47256;18.904;-99.054;2023-04-25T01:33:45;13.02;;;6.50;;
61385;SDS011;47256;18.904;-99.054;2023-04-25T01:36:13;13.23;;;7.00;;
61385;SDS011;47256;18.904;-99.054;2023-04-25T01:38:41;11.57;;;7.05;;
61385;SDS011;47256;18.904;-99.054;2023-04-25T01:41:09;12.50;;;6.30;;
61385;SDS011;47256;18.904;-99.054;2023-04-25T01:43:38;13.88;;;6.22;;
61385;SDS011;47256;18.904;-99.054;2023-04-25T01:46:06;14.25;;;6.75;;
61385;SDS011;47256;18.904;-99.054;2023-04-25T01:48:33;12.70;;;6.90;;
61385;SDS011;47256;18.904;-99.054;2023-04-25T01:51:00;10.95;;;6.68;;
61385;SDS011;47256;18.904;-99.054;2023-04-25T01:53:29;14.00;;;7.53;;
61385;SDS011;47256;18.904;-99.054;2023-04-25T01:55:56;11.65;;;6.82;;
61385;SDS011;47256;18.904;-99.054;2023-04-25T01:58:27;12.18;;;6.57;;
61385;SDS011;47256;18.904;-99.054;2023-04-25T02:03:38;11.88;;;6.80;;
61385;SDS011;47256;18.904;-99.054;2023-04-25T02:06:11;16.00;;;7.10;;
61385;SDS011;47256;18.904;-99.054;2023-04-25T02:08:42;15.70;;;6.43;;
61385;SDS011;47256;18.904;-99.054;2023-04-25T02:11:12;13.27;;;7.00;;
61385;SDS011;47256;18.904;-99.054;2023-04-25T02:13:46;7.65;;;6.13;;
61385;SDS011;47256;18.904;-99.054;2023-04-25T02:16:30;14.23;;;8.05;;
61385;SDS011;47256;18.904;-99.054;2023-04-25T02:19:00;10.23;;;8.02;;
61385;SDS011;47256;18.904;-99.054;2023-04-25T02:21:29;15.43;;;7.85;;
61385;SDS011;47256;18.904;-99.054;2023-04-25T02:23:57;21.25;;;8.40;;
61385;SDS011;47256;18.904;-99.054;2023-04-25T02:26:27;15.38;;;8.25;;
61385;SDS011;47256;18.904;-99.054;2023-04-25T02:28:56;12.88;;;8.75;;
61385;SDS011;47256;18.904;-99.054;2023-04-25T02:31:23;17.30;;;8.48;;
61385;SDS011;47256;18.904;-99.054;2023-04-25T02:33:50;21.80;;;8.65;;
61385;SDS011;47256;18.904;-99.054;2023-04-25T02:36:19;22.98;;;9.27;;
61385;SDS011;47256;18.904;-99.054;2023-04-25T02:38:48;15.88;;;9.30;;
61385;SDS011;47256;18.904;-99.054;2023-04-25T02:41:15;12.52;;;8.35;;
61385;SDS011;47256;18.904;-99.054;2023-04-25T02:43:42;16.77;;;9.77;;
61385;SDS011;47256;18.904;-99.054;2023-04-25T02:46:09;17.20;;;8.65;;
61385;SDS011;47256;18.904;-99.054;2023-04-25T02:48:38;12.77;;;9.32;;
61385;SDS011;47256;18.904;-99.054;2023-04-25T02:51:05;18.90;;;10.63;;
61385;SDS011;47256;18.904;-99.054;2023-04-25T02:53:34;23.88;;;10.32;;
61385;SDS011;47256;18.904;-99.054;2023-04-25T02:56:02;18.45;;;9.95;;
61385;SDS011;47256;18.904;-99.054;2023-04-25T02:58:29;16.15;;;9.93;;
61385;SDS011;47256;18.904;-99.054;2023-04-25T03:00:56;15.25;;;10.15;;
61385;SDS011;47256;18.904;-99.054;2023-04-25T03:03:24;30.92;;;10.65;;
61385;SDS011;47256;18.904;-99.054;2023-04-25T03:05:51;19.42;;;9.13;;
61385;SDS011;47256;18.904;-99.054;2023-04-25T03:08:23;16.40;;;10.05;;
61385;SDS011;47256;18.904;-99.054;2023-04-25T03:10:53;14.23;;;10.32;;
61385;SDS011;47256;18.904;-99.054;2023-04-25T03:13:21;19.30;;;10.70;;
61385;SDS011;47256;18.904;-99.054;2023-04-25T03:15:48;20.90;;;10.55;;
61385;SDS011;47256;18.904;-99.054;2023-04-25T03:18:18;22.75;;;10.88;;
61385;SDS011;47256;18.904;-99.054;2023-04-25T03:20:45;15.55;;;10.77;;
61385;SDS011;47256;18.904;-99.054;2023-04-25T03:23:13;20.15;;;10.45;;
61385;SDS011;47256;18.904;-99.054;2023-04-25T03:25:42;29.63;;;11.40;;
61385;SDS011;47256;18.904;-99.054;2023-04-25T03:28:09;39.35;;;12.18;;
61385;SDS011;47256;18.904;-99.054;2023-04-25T03:30:39;27.58;;;12.05;;
61385;SDS011;47256;18.904;-99.054;2023-04-25T03:33:06;28.85;;;12.27;;
61385;SDS011;47256;18.904;-99.054;2023-04-25T03:35:33;26.10;;;10.45;;
61385;SDS011;47256;18.904;-99.054;2023-04-25T03:38:01;45.00;;;12.88;;
61385;SDS011;47256;18.904;-99.054;2023-04-25T03:40:33;28.38;;;10.73;;
61385;SDS011;47256;18.904;-99.054;2023-04-25T03:43:19;15.85;;;10.15;;
61385;SDS011;47256;18.904;-99.054;2023-04-25T03:45:56;30.45;;;10.73;;
61385;SDS011;47256;18.904;-99.054;2023-04-25T03:48:25;29.15;;;11.00;;
61385;SDS011;47256;18.904;-99.054;2023-04-25T03:50:53;18.90;;;10.38;;
61385;SDS011;47256;18.904;-99.054;2023-04-25T03:53:22;31.58;;;10.85;;
61385;SDS011;47256;18.904;-99.054;2023-04-25T03:56:20;23.25;;;10.60;;
61385;SDS011;47256;18.904;-99.054;2023-04-25T03:58:57;25.42;;;11.40;;
61385;SDS011;47256;18.904;-99.054;2023-04-25T04:01:26;19.10;;;9.77;;
61385;SDS011;47256;18.904;-99.054;2023-04-25T04:03:55;17.42;;;9.50;;
61385;SDS011;47256;18.904;-99.054;2023-04-25T04:06:23;19.13;;;10.20;;
61385;SDS011;47256;18.904;-99.054;2023-04-25T04:08:58;26.98;;;10.07;;
61385;SDS011;47256;18.904;-99.054;2023-04-25T04:11:26;22.50;;;9.73;;
61385;SDS011;47256;18.904;-99.054;2023-04-25T04:13:53;18.35;;;9.80;;
61385;SDS011;47256;18.904;-99.054;2023-04-25T04:16:21;17.15;;;10.00;;
61385;SDS011;47256;18.904;-99.054;2023-04-25T04:18:48;16.40;;;8.93;;
61385;SDS011;47256;18.904;-99.054;2023-04-25T04:21:16;17.85;;;9.90;;
61385;SDS011;47256;18.904;-99.054;2023-04-25T04:23:43;15.15;;;8.52;;
61385;SDS011;47256;18.904;-99.054;2023-04-25T04:26:13;15.18;;;8.57;;
61385;SDS011;47256;18.904;-99.054;2023-04-25T04:28:56;16.90;;;9.73;;
61385;SDS011;47256;18.904;-99.054;2023-04-25T04:31:45;20.33;;;10.32;;
61385;SDS011;47256;18.904;-99.054;2023-04-25T04:34:15;14.57;;;9.35;;
61385;SDS011;47256;18.904;-99.054;2023-04-25T04:36:44;14.90;;;8.75;;
61385;SDS011;47256;18.904;-99.054;2023-04-25T04:39:13;15.77;;;9.10;;
61385;SDS011;47256;18.904;-99.054;2023-04-25T04:41:54;14.65;;;8.98;;
61385;SDS011;47256;18.904;-99.054;2023-04-25T04:44:48;17.83;;;8.65;;
61385;SDS011;47256;18.904;-99.054;2023-04-25T04:47:34;14.88;;;9.55;;
61385;SDS011;47256;18.904;-99.054;2023-04-25T04:50:16;14.05;;;8.50;;
61385;SDS011;47256;18.904;-99.054;2023-04-25T04:53:07;18.85;;;10.77;;
61385;SDS011;47256;18.904;-99.054;2023-04-25T04:55:53;14.57;;;9.77;;
61385;SDS011;47256;18.904;-99.054;2023-04-25T04:58:50;22.00;;;10.77;;
61385;SDS011;47256;18.904;-99.054;2023-04-25T05:01:37;24.30;;;10.48;;
61385;SDS011;47256;18.904;-99.054;2023-04-25T05:04:17;23.95;;;9.98;;
61385;SDS011;47256;18.904;-99.054;2023-04-25T05:07:04;19.40;;;10.02;;
61385;SDS011;47256;18.904;-99.054;2023-04-25T05:10:01;20.77;;;9.90;;
61385;SDS011;47256;18.904;-99.054;2023-04-25T05:12:52;17.77;;;9.80;;
61385;SDS011;47256;18.904;-99.054;2023-04-25T05:15:40;23.90;;;14.80;;
61385;SDS011;47256;18.904;-99.054;2023-04-25T05:18:28;21.60;;;12.18;;
61385;SDS011;47256;18.904;-99.054;2023-04-25T05:21:26;29.77;;;12.18;;
61385;SDS011;47256;18.904;-99.054;2023-04-25T05:24:27;22.08;;;12.07;;
61385;SDS011;47256;18.904;-99.054;2023-04-25T05:26:57;21.92;;;12.18;;
61385;SDS011;47256;18.904;-99.054;2023-04-25T05:29:52;27.48;;;12.75;;
61385;SDS011;47256;18.904;-99.054;2023-04-25T05:32:27;16.63;;;11.27;;
61385;SDS011;47256;18.904;-99.054;2023-04-25T05:34:55;25.60;;;11.93;;
61385;SDS011;47256;18.904;-99.054;2023-04-25T05:37:26;24.00;;;12.75;;
61385;SDS011;47256;18.904;-99.054;2023-04-25T05:39:57;21.60;;;12.25;;
61385;SDS011;47256;18.904;-99.054;2023-04-25T05:42:43;21.33;;;12.75;;
61385;SDS011;47256;18.904;-99.054;2023-04-25T05:45:24;20.17;;;12.63;;
61385;SDS011;47256;18.904;-99.054;2023-04-25T05:48:15;18.80;;;12.05;;
61385;SDS011;47256;18.904;-99.054;2023-04-25T05:50:55;17.73;;;11.65;;
61385;SDS011;47256;18.904;-99.054;2023-04-25T05:53:37;19.95;;;11.82;;
61385;SDS011;47256;18.904;-99.054;2023-04-25T05:56:05;23.25;;;12.13;;
61385;SDS011;47256;18.904;-99.054;2023-04-25T05:58:33;26.75;;;12.85;;
61385;SDS011;47256;18.904;-99.054;2023-04-25T06:01:01;22.35;;;11.43;;
61385;SDS011;47256;18.904;-99.054;2023-04-25T06:03:29;19.85;;;11.70;;
61385;SDS011;47256;18.904;-99.054;2023-04-25T06:05:57;21.35;;;10.63;;
61385;SDS011;47256;18.904;-99.054;2023-04-25T06:08:25;23.65;;;12.55;;
61385;SDS011;47256;18.904;-99.054;2023-04-25T06:10:53;19.38;;;10.73;;
61385;SDS011;47256;18.904;-99.054;2023-04-25T06:13:21;16.52;;;10.95;;
61385;SDS011;47256;18.904;-99.054;2023-04-25T06:15:49;25.88;;;11.55;;
61385;SDS011;47256;18.904;-99.054;2023-04-25T06:18:17;19.23;;;10.27;;
61385;SDS011;47256;18.904;-99.054;2023-04-25T06:20:46;18.23;;;11.80;;
61385;SDS011;47256;18.904;-99.054;2023-04-25T06:23:13;19.30;;;11.13;;
61385;SDS011;47256;18.904;-99.054;2023-04-25T06:26:01;24.17;;;11.30;;
61385;SDS011;47256;18.904;-99.054;2023-04-25T06:28:29;24.95;;;11.50;;
61385;SDS011;47256;18.904;-99.054;2023-04-25T06:30:57;20.15;;;11.35;;
61385;SDS011;47256;18.904;-99.054;2023-04-25T06:33:24;17.98;;;10.93;;
61385;SDS011;47256;18.904;-99.054;2023-04-25T06:35:54;22.50;;;12.00;;
61385;SDS011;47256;18.904;-99.054;2023-04-25T06:38:24;19.05;;;10.95;;
61385;SDS011;47256;18.904;-99.054;2023-04-25T06:40:55;17.77;;;11.13;;
61385;SDS011;47256;18.904;-99.054;2023-04-25T06:43:22;17.20;;;10.10;;
61385;SDS011;47256;18.904;-99.054;2023-04-25T06:46:10;26.67;;;10.98;;
61385;SDS011;47256;18.904;-99.054;2023-04-25T06:48:44;27.23;;;10.98;;
61385;SDS011;47256;18.904;-99.054;2023-04-25T06:51:13;24.55;;;11.82;;
61385;SDS011;47256;18.904;-99.054;2023-04-25T06:53:41;21.17;;;11.45;;
61385;SDS011;47256;18.904;-99.054;2023-04-25T06:56:15;16.65;;;10.52;;
61385;SDS011;47256;18.904;-99.054;2023-04-25T06:58:56;25.70;;;11.02;;
61385;SDS011;47256;18.904;-99.054;2023-04-25T07:01:32;22.55;;;11.32;;
61385;SDS011;47256;18.904;-99.054;2023-04-25T07:04:03;31.83;;;12.23;;
61385;SDS011;47256;18.904;-99.054;2023-04-25T07:06:32;26.52;;;11.55;;
61385;SDS011;47256;18.904;-99.054;2023-04-25T07:09:00;25.90;;;11.80;;
61385;SDS011;47256;18.904;-99.054;2023-04-25T07:11:28;18.33;;;11.82;;
61385;SDS011;47256;18.904;-99.054;2023-04-25T07:13:55;17.40;;;11.02;;
61385;SDS011;47256;18.904;-99.054;2023-04-25T07:16:23;20.25;;;11.43;;
61385;SDS011;47256;18.904;-99.054;2023-04-25T07:18:50;23.13;;;11.90;;
61385;SDS011;47256;18.904;-99.054;2023-04-25T07:21:19;15.70;;;10.50;;
61385;SDS011;47256;18.904;-99.054;2023-04-25T07:23:51;19.75;;;10.85;;
61385;SDS011;47256;18.904;-99.054;2023-04-25T07:26:24;19.27;;;10.35;;
61385;SDS011;47256;18.904;-99.054;2023-04-25T07:29:10;16.73;;;10.70;;
61385;SDS011;47256;18.904;-99.054;2023-04-25T07:31:38;18.83;;;10.15;;
61385;SDS011;47256;18.904;-99.054;2023-04-25T07:34:05;16.13;;;9.77;;
61385;SDS011;47256;18.904;-99.054;2023-04-25T07:36:34;17.23;;;10.93;;
61385;SDS011;47256;18.904;-99.054;2023-04-25T07:39:01;19.23;;;10.73;;
61385;SDS011;47256;18.904;-99.054;2023-04-25T07:41:29;18.60;;;10.77;;
61385;SDS011;47256;18.904;-99.054;2023-04-25T07:43:56;16.70;;;10.48;;
61385;SDS011;47256;18.904;-99.054;2023-04-25T07:46:25;14.85;;;10.20;;
61385;SDS011;47256;18.904;-99.054;2023-04-25T07:48:53;13.20;;;9.68;;
61385;SDS011;47256;18.904;-99.054;2023-04-25T07:51:20;16.55;;;10.65;;
61385;SDS011;47256;18.904;-99.054;2023-04-25T07:53:50;17.42;;;10.07;;
61385;SDS011;47256;18.904;-99.054;2023-04-25T07:56:17;18.08;;;10.88;;
61385;SDS011;47256;18.904;-99.054;2023-04-25T07:58:47;21.08;;;10.73;;
61385;SDS011;47256;18.904;-99.054;2023-04-25T08:01:18;19.77;;;12.02;;
61385;SDS011;47256;18.904;-99.054;2023-04-25T08:03:52;24.13;;;11.98;;
61385;SDS011;47256;18.904;-99.054;2023-04-25T08:06:42;19.05;;;11.55;;
61385;SDS011;47256;18.904;-99.054;2023-04-25T08:09:17;40.85;;;14.20;;
61385;SDS011;47256;18.904;-99.054;2023-04-25T08:11:46;25.92;;;12.82;;
61385;SDS011;47256;18.904;-99.054;2023-04-25T08:14:16;24.40;;;12.63;;
61385;SDS011;47256;18.904;-99.054;2023-04-25T08:16:44;21.75;;;11.13;;
61385;SDS011;47256;18.904;-99.054;2023-04-25T08:19:12;26.20;;;11.32;;
61385;SDS011;47256;18.904;-99.054;2023-04-25T08:21:39;23.77;;;11.50;;
61385;SDS011;47256;18.904;-99.054;2023-04-25T08:24:11;22.48;;;11.43;;
61385;SDS011;47256;18.904;-99.054;2023-04-25T08:26:40;16.40;;;11.32;;
61385;SDS011;47256;18.904;-99.054;2023-04-25T08:29:10;19.67;;;11.25;;
61385;SDS011;47256;18.904;-99.054;2023-04-25T08:31:40;17.80;;;12.57;;
61385;SDS011;47256;18.904;-99.054;2023-04-25T08:34:07;21.38;;;12.43;;
61385;SDS011;47256;18.904;-99.054;2023-04-25T08:36:43;19.35;;;11.85;;
61385;SDS011;47256;18.904;-99.054;2023-04-25T08:39:43;19.33;;;12.15;;
61385;SDS011;47256;18.904;-99.054;2023-04-25T08:42:26;15.48;;;10.82;;
61385;SDS011;47256;18.904;-99.054;2023-04-25T08:44:55;18.40;;;11.20;;
61385;SDS011;47256;18.904;-99.054;2023-04-25T08:47:26;21.60;;;11.93;;
61385;SDS011;47256;18.904;-99.054;2023-04-25T08:49:57;17.40;;;11.40;;
61385;SDS011;47256;18.904;-99.054;2023-04-25T08:52:27;20.95;;;10.88;;
61385;SDS011;47256;18.904;-99.054;2023-04-25T08:54:59;22.40;;;11.20;;
61385;SDS011;47256;18.904;-99.054;2023-04-25T08:57:29;24.85;;;11.13;;
61385;SDS011;47256;18.904;-99.054;2023-04-25T08:59:59;19.52;;;12.18;;
61385;SDS011;47256;18.904;-99.054;2023-04-25T09:02:31;17.15;;;11.55;;
61385;SDS011;47256;18.904;-99.054;2023-04-25T09:04:59;19.63;;;10.93;;
61385;SDS011;47256;18.904;-99.054;2023-04-25T09:07:28;24.15;;;10.85;;
61385;SDS011;47256;18.904;-99.054;2023-04-25T09:09:56;25.50;;;12.05;;
61385;SDS011;47256;18.904;-99.054;2023-04-25T09:12:25;23.85;;;12.18;;
61385;SDS011;47256;18.904;-99.054;2023-04-25T09:15:05;26.48;;;11.48;;
61385;SDS011;47256;18.904;-99.054;2023-04-25T09:18:02;27.20;;;13.43;;
61385;SDS011;47256;18.904;-99.054;2023-04-25T09:20:43;33.33;;;12.15;;
61385;SDS011;47256;18.904;-99.054;2023-04-25T09:23:11;27.23;;;11.40;;
61385;SDS011;47256;18.904;-99.054;2023-04-25T09:25:41;24.15;;;11.60;;
61385;SDS011;47256;18.904;-99.054;2023-04-25T09:28:10;28.33;;;11.40;;
61385;SDS011;47256;18.904;-99.054;2023-04-25T09:30:38;27.48;;;12.43;;
61385;SDS011;47256;18.904;-99.054;2023-04-25T09:33:29;35.03;;;12.13;;
61385;SDS011;47256;18.904;-99.054;2023-04-25T09:36:09;29.40;;;11.98;;
61385;SDS011;47256;18.904;-99.054;2023-04-25T09:39:06;23.63;;;11.48;;
61385;SDS011;47256;18.904;-99.054;2023-04-25T09:41:47;32.58;;;12.50;;
61385;SDS011;47256;18.904;-99.054;2023-04-25T09:44:23;30.42;;;12.48;;
61385;SDS011;47256;18.904;-99.054;2023-04-25T09:46:52;24.27;;;11.85;;
61385;SDS011;47256;18.904;-99.054;2023-04-25T09:49:22;25.27;;;11.82;;
61385;SDS011;47256;18.904;-99.054;2023-04-25T09:52:06;20.52;;;11.65;;
61385;SDS011;47256;18.904;-99.054;2023-04-25T09:54:46;26.20;;;12.32;;
61385;SDS011;47256;18.904;-99.054;2023-04-25T09:59:49;26.63;;;11.98;;
61385;SDS011;47256;18.904;-99.054;2023-04-25T10:02:21;26.65;;;12.02;;
61385;SDS011;47256;18.904;-99.054;2023-04-25T10:04:52;20.90;;;11.95;;
61385;SDS011;47256;18.904;-99.054;2023-04-25T10:07:29;22.58;;;12.10;;
61385;SDS011;47256;18.904;-99.054;2023-04-25T10:09:59;26.52;;;12.68;;
61385;SDS011;47256;18.904;-99.054;2023-04-25T10:12:31;27.65;;;12.20;;
61385;SDS011;47256;18.904;-99.054;2023-04-25T10:15:01;22.83;;;11.10;;
61385;SDS011;47256;18.904;-99.054;2023-04-25T10:17:30;24.55;;;11.80;;
61385;SDS011;47256;18.904;-99.054;2023-04-25T10:20:00;23.33;;;12.32;;
61385;SDS011;47256;18.904;-99.054;2023-04-25T10:22:42;24.10;;;12.55;;
61385;SDS011;47256;18.904;-99.054;2023-04-25T10:25:11;24.63;;;12.23;;
61385;SDS011;47256;18.904;-99.054;2023-04-25T10:27:39;30.05;;;11.98;;
61385;SDS011;47256;18.904;-99.054;2023-04-25T10:30:08;23.83;;;11.52;;
61385;SDS011;47256;18.904;-99.054;2023-04-25T10:32:43;32.40;;;11.88;;
61385;SDS011;47256;18.904;-99.054;2023-04-25T10:35:23;20.38;;;10.93;;
61385;SDS011;47256;18.904;-99.054;2023-04-25T10:40:36;23.45;;;12.30;;
61385;SDS011;47256;18.904;-99.054;2023-04-25T10:48:46;19.10;;;11.85;;
61385;SDS011;47256;18.904;-99.054;2023-04-25T10:51:23;23.38;;;11.40;;
61385;SDS011;47256;18.904;-99.054;2023-04-25T11:04:05;18.00;;;11.65;;
61385;SDS011;47256;18.904;-99.054;2023-04-25T11:09:34;20.48;;;11.40;;
61385;SDS011;47256;18.904;-99.054;2023-04-25T11:12:04;22.48;;;11.55;;
61385;SDS011;47256;18.904;-99.054;2023-04-25T11:14:34;15.10;;;10.95;;
61385;SDS011;47256;18.904;-99.054;2023-04-25T11:17:02;15.43;;;10.50;;
61385;SDS011;47256;18.904;-99.054;2023-04-25T11:19:29;17.65;;;11.90;;
61385;SDS011;47256;18.904;-99.054;2023-04-25T11:22:01;20.60;;;11.68;;
61385;SDS011;47256;18.904;-99.054;2023-04-25T11:24:30;19.73;;;11.48;;
61385;SDS011;47256;18.904;-99.054;2023-04-25T11:26:58;20.73;;;11.10;;
61385;SDS011;47256;18.904;-99.054;2023-04-25T11:29:29;27.80;;;12.07;;
61385;SDS011;47256;18.904;-99.054;2023-04-25T11:31:57;30.75;;;11.27;;
61385;SDS011;47256;18.904;-99.054;2023-04-25T11:34:26;26.77;;;11.77;;
61385;SDS011;47256;18.904;-99.054;2023-04-25T11:36:59;21.90;;;12.15;;
61385;SDS011;47256;18.904;-99.054;2023-04-25T11:39:27;18.70;;;11.18;;
61385;SDS011;47256;18.904;-99.054;2023-04-25T11:41:55;19.63;;;11.10;;
61385;SDS011;47256;18.904;-99.054;2023-04-25T11:44:22;19.67;;;11.35;;
61385;SDS011;47256;18.904;-99.054;2023-04-25T11:46:49;19.20;;;11.95;;
61385;SDS011;47256;18.904;-99.054;2023-04-25T11:49:16;24.33;;;12.43;;
61385;SDS011;47256;18.904;-99.054;2023-04-25T11:51:45;45.15;;;13.95;;
61385;SDS011;47256;18.904;-99.054;2023-04-25T11:54:14;25.42;;;13.18;;
61385;SDS011;47256;18.904;-99.054;2023-04-25T11:56:42;26.42;;;13.02;;
61385;SDS011;47256;18.904;-99.054;2023-04-25T11:59:10;31.58;;;13.40;;
61385;SDS011;47256;18.904;-99.054;2023-04-25T12:01:40;28.55;;;13.35;;
61385;SDS011;47256;18.904;-99.054;2023-04-25T12:04:17;25.23;;;14.65;;
61385;SDS011;47256;18.904;-99.054;2023-04-25T12:06:47;34.10;;;14.38;;
61385;SDS011;47256;18.904;-99.054;2023-04-25T12:09:17;30.70;;;14.35;;
61385;SDS011;47256;18.904;-99.054;2023-04-25T12:11:48;28.55;;;15.30;;
61385;SDS011;47256;18.904;-99.054;2023-04-25T12:14:24;28.77;;;15.10;;
61385;SDS011;47256;18.904;-99.054;2023-04-25T12:16:54;48.28;;;17.17;;
61385;SDS011;47256;18.904;-99.054;2023-04-25T12:19:23;42.75;;;16.40;;
61385;SDS011;47256;18.904;-99.054;2023-04-25T12:21:52;34.08;;;15.77;;
61385;SDS011;47256;18.904;-99.054;2023-04-25T12:24:23;36.67;;;15.35;;
61385;SDS011;47256;18.904;-99.054;2023-04-25T12:29:28;31.10;;;17.20;;
61385;SDS011;47256;18.904;-99.054;2023-04-25T12:31:57;48.53;;;17.23;;
61385;SDS011;47256;18.904;-99.054;2023-04-25T12:34:25;64.30;;;23.02;;
61385;SDS011;47256;18.904;-99.054;2023-04-25T12:36:52;75.07;;;23.42;;
61385;SDS011;47256;18.904;-99.054;2023-04-25T12:39:21;73.13;;;24.60;;
61385;SDS011;47256;18.904;-99.054;2023-04-25T12:41:49;75.95;;;25.33;;
61385;SDS011;47256;18.904;-99.054;2023-04-25T12:44:20;103.45;;;30.23;;
61385;SDS011;47256;18.904;-99.054;2023-04-25T12:46:47;103.72;;;31.85;;
61385;SDS011;47256;18.904;-99.054;2023-04-25T12:49:16;126.13;;;30.63;;
61385;SDS011;47256;18.904;-99.054;2023-04-25T12:51:43;159.88;;;35.10;;
61385;SDS011;47256;18.904;-99.054;2023-04-25T12:54:10;79.97;;;25.30;;
61385;SDS011;47256;18.904;-99.054;2023-04-25T12:56:37;67.93;;;19.05;;
61385;SDS011;47256;18.904;-99.054;2023-04-25T12:59:04;48.80;;;16.35;;
61385;SDS011;47256;18.904;-99.054;2023-04-25T13:01:32;46.80;;;18.02;;
61385;SDS011;47256;18.904;-99.054;2023-04-25T13:04:00;43.20;;;18.50;;
61385;SDS011;47256;18.904;-99.054;2023-04-25T13:06:27;35.85;;;15.68;;
61385;SDS011;47256;18.904;-99.054;2023-04-25T13:08:57;33.40;;;15.95;;
61385;SDS011;47256;18.904;-99.054;2023-04-25T13:11:25;35.72;;;15.35;;
61385;SDS011;47256;18.904;-99.054;2023-04-25T13:13:52;40.00;;;16.48;;
61385;SDS011;47256;18.904;-99.054;2023-04-25T13:16:19;60.55;;;21.73;;
61385;SDS011;47256;18.904;-99.054;2023-04-25T13:18:47;47.08;;;21.17;;
61385;SDS011;47256;18.904;-99.054;2023-04-25T13:21:17;40.05;;;18.90;;
61385;SDS011;47256;18.904;-99.054;2023-04-25T13:23:45;55.53;;;17.65;;
61385;SDS011;47256;18.904;-99.054;2023-04-25T13:26:12;33.22;;;18.17;;
61385;SDS011;47256;18.904;-99.054;2023-04-25T13:28:39;55.33;;;18.70;;
61385;SDS011;47256;18.904;-99.054;2023-04-25T13:31:07;44.35;;;19.90;;
61385;SDS011;47256;18.904;-99.054;2023-04-25T13:33:34;55.97;;;19.48;;
61385;SDS011;47256;18.904;-99.054;2023-04-25T13:36:01;62.38;;;21.88;;
61385;SDS011;47256;18.904;-99.054;2023-04-25T13:38:29;78.13;;;21.55;;
61385;SDS011;47256;18.904;-99.054;2023-04-25T13:40:56;46.90;;;21.13;;
61385;SDS011;47256;18.904;-99.054;2023-04-25T13:43:23;56.35;;;21.67;;
61385;SDS011;47256;18.904;-99.054;2023-04-25T13:45:50;30.52;;;16.17;;
61385;SDS011;47256;18.904;-99.054;2023-04-25T13:48:18;35.30;;;15.40;;
61385;SDS011;47256;18.904;-99.054;2023-04-25T13:50:46;22.80;;;14.55;;
61385;SDS011;47256;18.904;-99.054;2023-04-25T13:53:14;45.53;;;16.00;;
61385;SDS011;47256;18.904;-99.054;2023-04-25T13:55:41;34.92;;;16.45;;
61385;SDS011;47256;18.904;-99.054;2023-04-25T13:58:09;26.80;;;15.55;;
61385;SDS011;47256;18.904;-99.054;2023-04-25T14:00:37;51.90;;;17.92;;
61385;SDS011;47256;18.904;-99.054;2023-04-25T14:03:06;47.70;;;17.92;;
61385;SDS011;47256;18.904;-99.054;2023-04-25T14:05:33;53.85;;;17.65;;
61385;SDS011;47256;18.904;-99.054;2023-04-25T14:10:57;42.88;;;17.13;;
61385;SDS011;47256;18.904;-99.054;2023-04-25T14:13:24;55.78;;;17.05;;
61385;SDS011;47256;18.904;-99.054;2023-04-25T14:15:51;38.40;;;17.10;;
61385;SDS011;47256;18.904;-99.054;2023-04-25T14:24:25;31.73;;;16.80;;
61385;SDS011;47256;18.904;-99.054;2023-04-25T14:26:52;36.10;;;16.65;;
61385;SDS011;47256;18.904;-99.054;2023-04-25T14:32:39;38.63;;;17.85;;
61385;SDS011;47256;18.904;-99.054;2023-04-25T14:35:06;40.30;;;15.77;;
61385;SDS011;47256;18.904;-99.054;2023-04-25T14:37:34;30.30;;;16.60;;
61385;SDS011;47256;18.904;-99.054;2023-04-25T14:40:01;39.72;;;15.23;;
61385;SDS011;47256;18.904;-99.054;2023-04-25T14:42:29;35.75;;;15.43;;
61385;SDS011;47256;18.904;-99.054;2023-04-25T14:44:57;29.55;;;13.98;;
61385;SDS011;47256;18.904;-99.054;2023-04-25T14:47:25;45.17;;;16.08;;
61385;SDS011;47256;18.904;-99.054;2023-04-25T14:49:52;30.48;;;14.73;;
61385;SDS011;47256;18.904;-99.054;2023-04-25T14:52:20;20.45;;;13.82;;
61385;SDS011;47256;18.904;-99.054;2023-04-25T14:54:47;28.80;;;12.77;;
61385;SDS011;47256;18.904;-99.054;2023-04-25T14:57:15;39.25;;;15.00;;
61385;SDS011;47256;18.904;-99.054;2023-04-25T14:59:42;24.17;;;12.77;;
61385;SDS011;47256;18.904;-99.054;2023-04-25T15:14:12;17.98;;;10.98;;
61385;SDS011;47256;18.904;-99.054;2023-04-25T15:16:39;20.58;;;11.00;;